• Join FlightAware (Why Join?)
  • Login
  • US Flag 
08:45AM EDT


 

Airport Tracker/Info


-or-


 

Live Flight TrackerFlight Track Log ✈ PDT4140 ✈ 25-Apr-2013 ✈ KAVP - KPHL

Flight Track Log - Related Links

Times and Time Zones

All times are in EDT time to prevent confusion due to time zone crossing. See the PDT4140 flight status page for this flight to view local times or setup timezone preferences in your user account.

Time Position Orientation Groundspeed Altitude Reporting Facility
EDT Latitude Longitude Course Direction KTS MPH feet Rate Location/Type
02:38PM 41.0521 -75.5855 163° South  Level FlightAware Approximate
02:39PM 40.9572 -75.5462 163° South  Level FlightAware Approximate
02:40PM 40.8621 -75.5081 163° South  Level FlightAware Approximate
02:41PM 40.7669 -75.4700 163° South  Level FlightAware Approximate
02:42PM 40.6705 -75.4607 190° South  Level FlightAware Approximate
02:43PM 40.5726 -75.4833 190° South  Level FlightAware Approximate
02:44PM 40.4745 -75.5043 187° South  Level FlightAware Approximate
02:45PM 40.3759 -75.5211 188° South  Level FlightAware Approximate
02:46PM 40.2775 -75.5390 188° South  Level FlightAware Approximate
02:47PM 40.1865 -75.5198 143° Southeast  Level FlightAware Approximate
02:48PM 40.1075 -75.4408 143° Southeast  Level FlightAware Approximate
02:49PM 40.0236 -75.3736 143° Southeast  Level FlightAware Approximate
02:50PM 39.9456 -75.3061 159° South  Level FlightAware Approximate
02:51PM 39.8697 -75.2356 150° Southeast  Level FlightAware Approximate
02:51PM 40.5833 -75.3500 150° Southeast 238 274 5,100  Level Philadelphia TRACON
02:51PM 40.5667 -75.3667 217° Southwest 227 261 5,100  Level Philadelphia TRACON
02:52PM 39.8667 -75.2333 150° Southeast  Level FlightAware Approximate
02:52PM 40.5500 -75.4333 252° West 213 245 5,100  Level Philadelphia TRACON
02:53PM 39.8722 -75.2409 150° Southeast  Level Estimated
02:53PM 40.5167 -75.5000 237° Southwest 211 243 5,000  Level Philadelphia TRACON
02:54PM 39.8722 -75.2409 150° Southeast  Level Estimated
02:54PM 40.4500 -75.5333 201° Southwest 217 250 5,000  Level Philadelphia TRACON
02:55PM 39.8722 -75.2409 150° Southeast  Level Estimated
02:55PM 40.4000 -75.5333 180° South 215 247 5,000  Level Philadelphia TRACON
02:56PM 39.8722 -75.2409 150° Southeast  Level Estimated
02:56PM 40.3333 -75.5333 180° South 215 247 5,000  Level Philadelphia TRACON
02:57PM 40.2833 -75.5333 180° South 216 249 5,000  Level Philadelphia TRACON
02:58PM 40.2333 -75.4833 143° Southeast 219 252 5,000 -180 Level Philadelphia TRACON
02:59PM 40.1833 -75.4333 143° Southeast 222 255 4,700 -540 Descending Philadelphia TRACON
03:00PM 40.1333 -75.3833 143° Southeast 244 281 4,000 -360 Descending Philadelphia TRACON
03:01PM 40.1000 -75.3167 123° Southeast 221 254 4,000  Level Philadelphia TRACON
03:02PM 40.0667 -75.2500 123° Southeast 217 250 4,000  Level Philadelphia TRACON
03:03PM 40.0167 -75.2167 153° Southeast 216 249 4,000  Level Philadelphia TRACON
03:04PM 39.9667 -75.1833 153° Southeast 214 246 4,100 -120 Climbing Philadelphia TRACON
03:05PM 39.9000 -75.1500 159° South 209 241 3,800 -720 Descending Philadelphia TRACON
03:06PM 39.8500 -75.1333 166° South 206 237 2,700 -900 Descending Philadelphia TRACON
03:07PM 39.7833 -75.1333 180° South 196 226 2,000 -360 Descending Philadelphia TRACON
03:08PM 39.8000 -75.1833 293° West 158 182 2,000  Level Philadelphia TRACON